Time;durP1;ratioP1;P1;durP2;ratioP2;P2;SDS_P1;SDS_P2;PMS_P1;PMS_P2;Temp;Humidity;BMP_temperature;BMP_pressure;BME280_temperature;BME280_humidity;BME280_pressure;Samples;Min_cycle;Max_cycle;Signal;HPM_P1;HPM_P2
2022/05/21 00:01:25;;;;;;;9.52;2.30;;;;;;;20.53;54.82;94995.38;4809017;29;20039;-90
2022/05/21 00:03:57;;;;;;;15.75;1.65;;;;;;;20.47;54.97;94995.53;4793581;30;20092;-91
2022/05/21 00:06:25;;;;;;;4.37;1.80;;;;;;;20.37;55.72;94993.22;4780178;30;20039;-91
2022/05/21 00:08:50;;;;;;;8.32;2.33;;;;;;;20.11;56.10;94996.66;4793779;30;20031;-91
2022/05/21 00:11:16;;;;;;;8.23;2.13;;;;;;;20.16;55.80;94990.41;4793844;30;20326;-91
2022/05/21 00:13:41;;;;;;;5.95;2.03;;;;;;;19.90;56.67;94994.56;4778696;30;20460;-92
2022/05/21 00:16:07;;;;;;;7.28;2.28;;;;;;;19.85;56.91;94989.41;4793906;30;20042;-91
2022/05/21 00:18:32;;;;;;;3.97;1.95;;;;;;;19.79;56.98;94993.28;4793320;30;20035;-92
2022/05/21 00:20:58;;;;;;;8.98;1.95;;;;;;;19.77;56.67;94988.28;4793489;29;20034;-90
2022/05/21 00:23:26;;;;;;;5.10;2.28;;;;;;;19.40;56.88;94986.97;4793643;30;20034;-90
2022/05/21 00:25:59;;;;;;;4.43;1.90;;;;;;;18.78;58.06;94990.09;4793765;30;20041;-91
2022/05/21 00:28:25;;;;;;;;;;;;;;;18.77;55.85;94991.19;4808752;29;20035;-91
2022/05/21 00:30:50;;;;;;;12.40;1.70;;;;;;;18.61;57.24;94979.38;4793573;30;19913;-92
2022/05/21 00:33:16;;;;;;;5.63;2.00;;;;;;;18.28;58.13;94972.47;4778777;30;20323;-91
2022/05/21 00:35:41;;;;;;;5.72;1.90;;;;;;;18.12;60.73;94977.34;4793388;30;20076;-91
2022/05/21 00:38:09;;;;;;;4.80;1.80;;;;;;;17.95;61.95;94976.09;4793738;30;20041;-93
2022/05/21 00:40:35;;;;;;;10.63;2.17;;;;;;;17.91;64.33;94983.06;4792963;30;20049;-92
2022/05/21 00:43:01;;;;;;;6.15;1.88;;;;;;;18.02;64.16;94977.53;4808120;29;20117;-91
2022/05/21 00:45:26;;;;;;;9.50;2.38;;;;;;;17.90;62.85;94973.53;4793175;30;20055;-91
2022/05/21 00:47:52;;;;;;;7.60;1.90;;;;;;;18.13;62.54;94967.50;4778235;30;20035;-93
2022/05/21 00:50:20;;;;;;;10.27;2.17;;;;;;;18.19;62.96;94972.41;4792321;29;20040;-91
2022/05/21 00:52:46;;;;;;;5.35;1.75;;;;;;;18.06;62.75;94970.56;4792931;30;20039;-90
2022/05/21 00:55:16;;;;;;;9.95;1.92;;;;;;;17.80;65.06;94973.78;4804318;29;20092;-90
2022/05/21 00:57:47;;;;;;;11.77;2.50;;;;;;;18.15;65.41;94968.03;4774887;30;20136;-91
2022/05/21 01:00:18;;;;;;;6.68;2.72;;;;;;;18.00;64.85;94971.75;4784243;30;20043;-90
2022/05/21 01:02:58;;;;;;;3.78;1.75;;;;;;;17.97;66.56;94967.06;4792957;30;20031;-90
2022/05/21 01:05:25;;;;;;;4.75;2.10;;;;;;;18.27;68.03;94956.88;4807712;29;20434;-90
2022/05/21 01:07:57;;;;;;;5.05;2.17;;;;;;;18.19;69.52;94969.75;4799874;29;20043;-88
2022/05/21 01:10:27;;;;;;;5.30;1.90;;;;;;;18.04;70.83;94959.50;4774723;30;20076;-90
2022/05/21 01:13:20;;;;;;;10.85;2.25;;;;;;;18.13;69.92;94956.91;4774519;30;20039;-90
2022/05/21 01:15:49;;;;;;;7.05;1.80;;;;;;;18.09;70.14;94954.09;4774265;30;20047;-89
2022/05/21 01:18:15;;;;;;;7.90;2.05;;;;;;;17.97;75.15;94959.09;4789965;30;20135;-90
2022/05/21 01:21:17;;;;;;;3.95;1.95;;;;;;;17.73;76.24;94954.84;4793427;29;20057;-90
2022/05/21 01:23:43;;;;;;;5.65;2.50;;;;;;;18.24;72.43;94950.28;4789790;30;20485;-91
2022/05/21 01:26:27;;;;;;;3.70;2.03;;;;;;;17.95;73.18;94949.59;4789078;30;20044;-90
2022/05/21 01:28:53;;;;;;;5.50;2.08;;;;;;;17.70;68.75;94945.63;4785369;30;20039;-88
2022/05/21 01:31:50;;;;;;;7.55;2.00;;;;;;;17.77;68.33;94956.59;4777679;30;20035;-89
2022/05/21 01:34:16;;;;;;;6.90;1.63;;;;;;;17.69;71.05;94951.22;4792704;30;20043;-91
2022/05/21 01:36:42;;;;;;;6.07;2.08;;;;;;;17.61;68.74;94937.59;4806901;29;20034;-91
2022/05/21 01:39:07;;;;;;;6.18;1.98;;;;;;;17.41;73.31;94936.16;4806893;29;20042;-90
2022/05/21 01:41:33;;;;;;;6.57;1.77;;;;;;;17.50;82.94;94939.69;4807209;29;20062;-91
2022/05/21 01:46:44;;;;;;;4.95;1.58;;;;;;;17.14;78.24;94948.31;4792020;30;20124;-91
2022/05/21 01:49:13;;;;;;;10.43;1.80;;;;;;;16.94;79.41;94934.38;4791998;30;20488;-90
2022/05/21 01:51:38;;;;;;;3.95;1.80;;;;;;;17.03;79.73;94931.84;4792051;30;20042;-91
2022/05/21 01:54:04;;;;;;;5.55;1.80;;;;;;;17.13;81.40;94935.41;4777280;30;20035;-89
2022/05/21 01:56:29;;;;;;;8.30;2.10;;;;;;;17.22;76.74;94931.00;4777141;30;20035;-90
2022/05/21 01:58:57;;;;;;;4.55;2.00;;;;;;;17.06;82.03;94933.91;4791808;30;20041;-91
2022/05/21 02:01:25;;;;;;;6.05;1.92;;;;;;;17.00;85.32;94932.44;4791689;29;20107;-91
2022/05/21 02:03:52;;;;;;;9.13;1.85;;;;;;;17.12;87.04;94931.94;4776413;30;20074;-91
2022/05/21 02:06:18;;;;;;;6.10;1.65;;;;;;;17.15;79.90;94922.66;4777201;30;20100;-91
2022/05/21 02:08:43;;;;;;;5.45;1.92;;;;;;;17.06;83.36;94923.31;4776769;30;20034;-90
2022/05/21 02:11:11;;;;;;;10.70;2.15;;;;;;;16.95;83.74;94916.66;4776976;30;20039;-90
2022/05/21 02:13:36;;;;;;;9.25;1.95;;;;;;;16.69;88.00;94919.75;4791535;30;20357;-88
2022/05/21 02:16:07;;;;;;;3.03;1.80;;;;;;;16.90;89.00;94927.31;4776957;30;20031;-91
2022/05/21 02:18:35;;;;;;;4.10;1.85;;;;;;;16.91;92.18;94926.25;4777470;29;20042;-91
2022/05/21 02:21:03;;;;;;;5.75;2.28;;;;;;;16.94;89.27;94926.44;4776850;30;20043;-91
2022/05/21 02:23:29;;;;;;;4.95;1.75;;;;;;;17.00;88.94;94915.78;4791669;30;20520;-91
2022/05/21 02:26:00;;;;;;;3.38;1.73;;;;;;;16.95;88.14;94917.41;4791396;30;20193;-91
2022/05/21 02:28:27;;;;;;;7.85;2.03;;;;;;;16.92;84.65;94918.00;4776733;30;20034;-91
2022/05/21 02:30:52;;;;;;;6.93;1.73;;;;;;;16.62;91.30;94917.50;4791241;30;20043;-91
2022/05/21 02:33:18;;;;;;;6.07;2.33;;;;;;;16.67;88.91;94916.63;4776697;30;20197;-91
2022/05/21 02:35:43;;;;;;;4.43;2.00;;;;;;;16.19;98.40;94910.53;4776558;30;20042;-91
2022/05/21 02:40:53;;;;;;;4.75;1.83;;;;;;;16.49;96.55;94911.09;4803912;29;20042;-91
2022/05/21 02:43:19;;;;;;;6.38;2.00;;;;;;;16.62;92.91;94900.84;4791444;30;20027;-91
2022/05/21 02:45:54;;;;;;;;;;;;;;;;;;;;;
2022/05/21 02:48:30;;;;;;;;;;;;;;;;;;;;;
2022/05/21 02:51:00;;;;;;;12.35;2.47;;;;;;;16.31;100.00;94911.94;4786995;30;20465;-90
2022/05/21 02:53:43;;;;;;;;;;;;;;;;;;;;;
2022/05/21 02:56:13;;;;;;;3.55;1.55;;;;;;;16.60;94.94;94897.69;4802198;29;20027;-90
2022/05/21 02:58:39;;;;;;;9.82;2.13;;;;;;;16.52;93.53;94894.66;4790075;29;20099;-91
2022/05/21 03:01:04;;;;;;;3.55;1.60;;;;;;;16.61;89.85;94899.25;4787847;30;20070;-91
2022/05/21 03:03:31;;;;;;;6.10;2.03;;;;;;;16.59;89.50;94896.13;4775255;30;20096;-91
2022/05/21 03:05:57;;;;;;;8.48;2.53;;;;;;;16.32;94.80;94895.00;4790960;29;20066;-90
2022/05/21 03:11:07;;;;;;;2.55;1.70;;;;;;;16.40;95.07;94891.69;4790831;30;20038;-90
2022/05/21 03:13:34;;;;;;;10.25;2.13;;;;;;;16.52;100.00;94889.38;4777065;30;20027;-91
2022/05/21 03:16:00;;;;;;;8.82;2.20;;;;;;;16.54;100.00;94889.88;4809273;29;20126;-91
2022/05/21 03:18:25;;;;;;;9.55;2.28;;;;;;;16.54;90.95;94878.50;4809781;29;20038;-91
2022/05/21 03:20:51;;;;;;;6.75;1.98;;;;;;;16.47;92.31;94876.22;4794361;30;20031;-91
2022/05/21 03:23:19;;;;;;;5.55;1.92;;;;;;;16.34;100.00;94875.13;4809286;29;20546;-88
2022/05/21 03:25:45;;;;;;;9.63;2.03;;;;;;;16.15;100.00;94866.50;4778294;30;20082;-90
2022/05/21 03:28:16;;;;;;;7.25;1.98;;;;;;;15.81;100.00;94868.31;4779203;30;20050;-90
2022/05/21 03:30:41;;;;;;;8.60;2.40;;;;;;;15.94;100.00;94872.88;4779425;30;20113;-91
2022/05/21 03:33:07;;;;;;;10.77;2.50;;;;;;;16.07;100.00;94874.00;4779341;30;20047;-91
2022/05/21 03:35:42;;;;;;;3.22;1.80;;;;;;;16.19;100.00;94878.81;4779475;30;20341;-90
2022/05/21 03:38:18;;;;;;;;;;;;;;;;;;;;;
2022/05/21 03:40:55;;;;;;;;;;;;;;;;;;;;;
2022/05/21 03:43:27;;;;;;;9.40;2.92;;;;;;;16.38;100.00;94873.47;4807945;29;20029;-91
2022/05/21 03:45:55;;;;;;;10.40;2.37;;;;;;;15.96;100.00;94875.22;4779906;30;20341;-91
2022/05/21 03:48:23;;;;;;;8.32;2.30;;;;;;;15.77;100.00;94875.22;4779406;30;20096;-90
2022/05/21 03:50:48;;;;;;;8.70;2.33;;;;;;;15.99;100.00;94871.22;4793512;30;20065;-90
2022/05/21 03:53:16;;;;;;;9.07;2.13;;;;;;;16.16;100.00;94868.81;4778903;30;20027;-91
2022/05/21 03:55:42;;;;;;;11.00;2.47;;;;;;;16.13;100.00;94868.63;4779125;30;20143;-91
2022/05/21 03:58:07;;;;;;;10.02;2.50;;;;;;;16.29;100.00;94867.31;4779245;30;20031;-91
2022/05/21 04:00:43;;;;;;;;;;;;;;;;;;;;;
2022/05/21 04:03:09;;;;;;;5.97;2.30;;;;;;;16.30;100.00;94862.78;4793763;30;20034;-91
2022/05/21 04:05:39;;;;;;;11.93;2.97;;;;;;;15.96;100.00;94865.44;4794033;30;20483;-90
2022/05/21 04:08:14;;;;;;;;;;;;;;;;;;;;;
2022/05/21 04:10:43;;;;;;;8.85;2.28;;;;;;;15.94;100.00;94862.31;4807305;29;20027;-88
2022/05/21 04:13:18;;;;;;;6.07;2.13;;;;;;;15.91;100.00;94856.81;4779204;30;20134;-89
2022/05/21 04:15:52;;;;;;;14.60;2.60;;;;;;;16.17;100.00;94862.47;4779265;30;20100;-91
2022/05/21 04:18:18;;;;;;;5.68;2.72;;;;;;;16.34;100.00;94863.75;4793089;30;20066;-91
2022/05/21 04:20:46;;;;;;;6.93;2.88;;;;;;;16.28;100.00;94865.72;4808088;29;20075;-90
2022/05/21 04:23:12;;;;;;;10.00;2.63;;;;;;;16.24;100.00;94865.53;4793777;30;20031;-91
2022/05/21 04:25:38;;;;;;;12.25;2.78;;;;;;;16.15;100.00;94866.50;4807306;29;20107;-91
2022/05/21 04:28:03;;;;;;;7.75;2.63;;;;;;;15.99;100.00;94872.00;4778702;29;20031;-91
2022/05/21 04:30:29;;;;;;;10.80;2.80;;;;;;;16.21;100.00;94874.03;4808501;29;20391;-89
2022/05/21 04:33:00;;;;;;;8.18;2.58;;;;;;;16.27;100.00;94864.13;4808543;29;20042;-90
2022/05/21 04:36:17;;;;;;;6.88;2.80;;;;;;;16.37;100.00;94868.50;4778810;30;20038;-91
2022/05/21 04:38:12;;;;;;;5.97;2.88;;;;;;;16.58;100.00;94873.41;4805607;29;20095;-91
2022/05/21 04:40:40;;;;;;;10.50;3.20;;;;;;;16.54;100.00;94876.63;4808229;29;20212;-91
2022/05/21 04:43:05;;;;;;;8.57;2.45;;;;;;;16.47;100.00;94883.38;4793435;29;20028;-91
2022/05/21 04:45:31;;;;;;;5.65;2.47;;;;;;;16.33;100.00;94873.56;4792904;30;20456;-91
2022/05/21 04:47:56;;;;;;;10.10;2.53;;;;;;;16.62;100.00;94875.19;4792854;30;20130;-91
2022/05/21 04:50:29;;;;;;;7.45;3.47;;;;;;;16.54;100.00;94873.19;4793129;30;20061;-92
2022/05/21 04:53:02;;;;;;;9.97;2.77;;;;;;;16.52;100.00;94870.06;4808326;29;20088;-92
2022/05/21 04:55:27;;;;;;;7.75;2.65;;;;;;;16.54;100.00;94860.78;4807136;29;20268;-91
2022/05/21 04:57:55;;;;;;;6.53;2.80;;;;;;;16.71;100.00;94856.75;4792854;30;20338;-92
2022/05/21 05:00:28;;;;;;;10.15;3.28;;;;;;;17.04;100.00;94842.66;4794153;29;20118;-91
2022/05/21 05:02:55;;;;;;;10.55;3.00;;;;;;;16.84;100.00;94852.53;4794026;29;20061;-91
2022/05/21 05:05:28;;;;;;;16.20;2.60;;;;;;;17.11;100.00;94856.25;4786558;29;20042;-91
2022/05/21 05:08:01;;;;;;;7.27;2.90;;;;;;;16.90;100.00;94855.88;4779596;30;20465;-92
2022/05/21 05:10:26;;;;;;;10.63;3.03;;;;;;;16.90;100.00;94864.59;4775048;30;20433;-91
2022/05/21 05:12:54;;;;;;;10.00;3.10;;;;;;;16.94;100.00;94857.63;4775293;30;20285;-92
2022/05/21 05:15:30;;;;;;;;;;;;;;;;;;;;;
2022/05/21 05:18:00;;;;;;;11.55;3.30;;;;;;;16.96;100.00;94860.75;4774454;30;20134;-89
2022/05/21 05:20:29;;;;;;;13.15;3.13;;;;;;;17.13;100.00;94861.28;4759803;30;20039;-92
2022/05/21 05:23:04;;;;;;;9.82;2.78;;;;;;;17.00;100.00;94865.50;4774875;30;20097;-92
2022/05/21 05:25:30;;;;;;;6.28;2.83;;;;;;;17.08;100.00;94862.94;4789426;29;20036;-91
2022/05/21 05:28:03;;;;;;;5.97;2.72;;;;;;;17.18;100.00;94858.50;4774497;30;20126;-91
2022/05/21 05:30:29;;;;;;;6.67;2.50;;;;;;;17.18;100.00;94864.59;4760586;30;20042;-91
2022/05/21 05:32:54;;;;;;;15.50;2.45;;;;;;;17.16;100.00;94861.47;4789434;29;20265;-92
2022/05/21 05:35:20;;;;;;;3.83;2.22;;;;;;;17.47;100.00;94857.38;4774457;30;20031;-91
2022/05/21 05:37:46;;;;;;;7.68;2.60;;;;;;;17.73;100.00;94856.78;4759612;30;20038;-91
2022/05/21 05:40:15;;;;;;;5.80;2.30;;;;;;;17.97;100.00;94864.44;4774254;30;20434;-91
2022/05/21 05:42:41;;;;;;;7.30;2.33;;;;;;;18.41;100.00;94859.44;4789232;30;20027;-92
2022/05/21 05:45:08;;;;;;;8.45;2.58;;;;;;;18.28;100.00;94855.75;4789026;30;20034;-92
2022/05/21 05:47:34;;;;;;;6.85;2.47;;;;;;;18.56;100.00;94857.47;4788945;30;20039;-92
2022/05/21 05:50:00;;;;;;;11.35;2.70;;;;;;;18.90;100.00;94856.00;4788984;30;20028;-92
2022/05/21 05:52:38;;;;;;;11.25;2.55;;;;;;;19.20;100.00;94862.38;4774253;30;20028;-91
2022/05/21 05:55:04;;;;;;;4.47;2.00;;;;;;;19.31;100.00;94856.78;4789408;30;20031;-92
2022/05/21 05:57:29;;;;;;;6.97;2.67;;;;;;;19.41;100.00;94850.38;4788921;30;20112;-92
2022/05/21 05:59:55;;;;;;;6.40;2.45;;;;;;;19.45;100.00;94852.09;4788974;30;20068;-91
2022/05/21 06:05:13;;;;;;;7.72;2.30;;;;;;;19.78;94.63;94842.84;4804638;29;20035;-91
2022/05/21 06:07:48;;;;;;;5.88;2.17;;;;;;;19.29;100.00;94850.97;4806510;29;20031;-92
2022/05/21 06:10:17;;;;;;;6.95;2.30;;;;;;;19.76;100.00;94850.34;4791567;30;20345;-92
2022/05/21 06:12:50;;;;;;;8.07;2.38;;;;;;;19.86;100.00;94844.72;4806566;29;20031;-91
2022/05/21 06:15:16;;;;;;;6.85;2.20;;;;;;;19.98;100.00;94846.75;4806453;29;20031;-91
2022/05/21 06:17:42;;;;;;;5.55;2.47;;;;;;;19.68;100.00;94843.19;4776943;30;20334;-91
2022/05/21 06:20:14;;;;;;;4.15;1.90;;;;;;;19.87;100.00;94842.84;4806228;29;20031;-91
2022/05/21 06:22:42;;;;;;;5.15;2.20;;;;;;;19.76;100.00;94842.38;4791756;30;20032;-92
2022/05/21 06:25:08;;;;;;;6.80;2.25;;;;;;;20.39;100.00;94843.84;4791389;29;20091;-91
2022/05/21 06:27:34;;;;;;;5.78;2.17;;;;;;;20.52;100.00;94834.88;4791578;30;20064;-92
2022/05/21 06:29:59;;;;;;;5.60;2.58;;;;;;;20.63;100.00;94837.97;4776565;30;20027;-91
2022/05/21 06:32:27;;;;;;;7.88;2.55;;;;;;;20.25;100.00;94846.72;4806150;29;20035;-92
2022/05/21 06:34:53;;;;;;;4.40;2.40;;;;;;;20.49;100.00;94851.50;4791197;30;20035;-92
2022/05/21 06:37:18;;;;;;;9.15;2.28;;;;;;;20.38;100.00;94851.06;4791580;30;20446;-92
2022/05/21 06:39:43;;;;;;;6.15;2.10;;;;;;;20.66;100.00;94852.53;4806103;29;20346;-92
2022/05/21 06:42:11;;;;;;;5.55;2.50;;;;;;;20.76;100.00;94855.63;4791126;30;20106;-91
2022/05/21 06:44:36;;;;;;;6.00;2.45;;;;;;;20.77;100.00;94857.16;4776437;30;20035;-91
2022/05/21 06:47:02;;;;;;;7.53;2.40;;;;;;;20.85;100.00;94866.25;4792040;29;20442;-92
2022/05/21 06:49:28;;;;;;;7.88;2.17;;;;;;;21.02;100.00;94854.72;4790862;30;20111;-91
2022/05/21 06:51:54;;;;;;;3.97;2.10;;;;;;;21.18;100.00;94851.50;4791127;30;20446;-92
2022/05/21 06:54:21;;;;;;;6.65;2.38;;;;;;;21.01;100.00;94855.03;4791047;29;20096;-92
2022/05/21 06:56:46;;;;;;;7.30;2.33;;;;;;;21.13;100.00;94857.03;4805600;29;20061;-91
2022/05/21 06:59:12;;;;;;;9.52;2.20;;;;;;;20.95;100.00;94862.47;4775929;30;20129;-92
2022/05/21 07:01:38;;;;;;;7.50;2.40;;;;;;;20.58;100.00;94862.13;4790925;29;20420;-91
2022/05/21 07:04:03;;;;;;;7.90;2.33;;;;;;;20.63;100.00;94864.59;4790735;30;20038;-91
2022/05/21 07:09:13;;;;;;;7.25;2.40;;;;;;;20.93;100.00;94861.22;4803437;29;20345;-90
2022/05/21 07:11:39;;;;;;;7.55;2.33;;;;;;;20.98;100.00;94861.81;4790524;30;20125;-89
2022/05/21 07:14:05;;;;;;;12.25;2.45;;;;;;;21.33;100.00;94868.81;4805885;29;20049;-90
2022/05/21 07:16:33;;;;;;;6.70;2.20;;;;;;;21.53;100.00;94869.94;4805310;29;20106;-89
2022/05/21 07:18:58;;;;;;;12.30;2.72;;;;;;;21.32;100.00;94861.94;4790015;30;20100;-89
2022/05/21 07:21:24;;;;;;;5.80;2.50;;;;;;;21.54;100.00;94860.84;4790783;29;20426;-88
2022/05/21 07:27:23;;;;;;;13.40;2.42;;;;;;;21.53;96.56;94866.50;4789965;29;20054;-90
2022/05/21 07:29:58;;;;;;;;;;;;;;;;;;;;;
2022/05/21 07:32:56;;;;;;;;;;;;;;;;;;;;;
2022/05/21 07:35:15;;;;;;;5.28;2.35;;;;;;;21.79;100.00;94870.88;4798365;29;20038;-89
2022/05/21 07:37:51;;;;;;;;;;;;;;;;;;;;;
2022/05/21 07:40:29;;;;;;;;;;;;;;;;;;;;;
2022/05/21 07:42:54;;;;;;;7.15;2.58;;;;;;;21.87;89.34;94865.47;4803930;29;20023;-90
2022/05/21 07:45:23;;;;;;;5.22;2.17;;;;;;;21.94;100.00;94858.81;4805091;29;20126;-90
2022/05/21 07:47:49;;;;;;;7.15;1.90;;;;;;;22.02;100.00;94863.28;4789995;29;20441;-89
2022/05/21 07:50:30;;;;;;;;;;;;;;;;;;;;;
2022/05/21 07:52:58;;;;;;;4.90;2.30;;;;;;;21.75;90.83;94858.19;4803789;29;20030;-90
2022/05/21 07:55:40;;;;;;;7.18;2.35;;;;;;;22.01;91.29;94853.72;4790043;30;20039;-90
2022/05/21 07:58:08;;;;;;;8.88;2.65;;;;;;;21.80;83.70;94856.44;4791458;29;20039;-90
2022/05/21 08:00:58;;;;;;;;;;;;;;;;;;;;;
2022/05/21 08:03:32;;;;;;;5.72;2.30;;;;;;;22.15;84.56;94843.53;5057807;28;20025;-90
2022/05/21 08:06:04;;;;;;;9.25;2.67;;;;;;;22.07;79.66;94852.41;5057681;28;20112;-90
2022/05/21 08:08:30;;;;;;;7.50;2.20;;;;;;;22.50;85.96;94849.63;5057430;28;20054;-90
2022/05/21 08:10:56;;;;;;;10.25;2.60;;;;;;;22.25;100.00;94849.59;5039696;28;20271;-90
2022/05/21 08:13:23;;;;;;;10.00;2.58;;;;;;;22.02;82.60;94852.63;5039260;28;20082;-90
2022/05/21 08:15:49;;;;;;;11.77;3.10;;;;;;;22.34;89.28;94844.91;5040217;28;20384;-89
2022/05/21 08:18:18;;;;;;;6.07;2.20;;;;;;;22.49;97.48;94850.75;5056507;28;20035;-90
2022/05/21 08:20:53;;;;;;;;;;;;;;;;;;;;;
2022/05/21 08:28:50;;;;;;;9.45;2.30;;;;;;;23.18;79.26;94844.88;5058536;28;20031;-90
2022/05/21 08:31:26;;;;;;;5.25;2.33;;;;;;;23.30;79.25;94844.84;5039310;28;20029;-90
2022/05/21 08:34:02;;;;;;;;;;;;;;;;;;;;;
2022/05/21 08:36:30;;;;;;;4.68;2.08;;;;;;;23.28;75.09;94841.75;5058549;28;20426;-89
2022/05/21 08:38:56;;;;;;;9.68;2.28;;;;;;;22.99;85.07;94843.53;5039396;28;20037;-88
2022/05/21 08:41:33;;;;;;;9.35;2.88;;;;;;;23.20;81.65;94846.06;5055787;28;20483;-90
2022/05/21 08:44:06;;;;;;;9.65;2.33;;;;;;;23.41;81.68;94834.50;5056649;28;20330;-90
2022/05/21 08:46:42;;;;;;;7.57;2.90;;;;;;;23.33;89.85;94835.41;5039302;28;20035;-87
2022/05/21 08:49:34;;;;;;;;;;;;;;;;;;;;;
2022/05/21 08:52:14;;;;;;;10.90;2.83;;;;;;;23.50;84.27;94834.34;5056898;28;20025;-90
2022/05/21 08:54:45;;;;;;;14.23;3.50;;;;;;;23.04;76.06;94839.84;5055822;28;20079;-90
2022/05/21 08:57:28;;;;;;;16.83;3.70;;;;;;;23.51;92.16;94833.25;5039474;28;20414;-90
2022/05/21 08:59:58;;;;;;;12.10;3.50;;;;;;;23.60;88.66;94825.88;5039618;28;20064;-89
2022/05/21 09:02:30;;;;;;;10.48;3.40;;;;;;;23.75;91.00;94832.38;5039215;28;20033;-89
2022/05/21 09:04:56;;;;;;;11.37;3.87;;;;;;;23.93;84.56;94832.84;5039034;28;20056;-90
2022/05/21 09:07:23;;;;;;;13.18;3.63;;;;;;;24.26;91.94;94829.13;5039073;28;20074;-89
2022/05/21 09:10:11;;;;;;;8.77;3.65;;;;;;;24.23;77.78;94831.72;5039271;28;20124;-89
2022/05/21 09:13:08;;;;;;;13.13;3.47;;;;;;;24.09;87.45;94832.16;5026060;28;20067;-89
2022/05/21 09:18:23;;;;;;;10.88;3.40;;;;;;;24.26;75.08;94836.41;5044550;28;20515;-90
2022/05/21 09:20:56;;;;;;;9.25;3.00;;;;;;;24.38;87.74;94836.31;5041658;28;20119;-90
2022/05/21 09:23:29;;;;;;;14.70;3.40;;;;;;;24.17;77.78;94820.47;5064158;28;20036;-90
2022/05/21 09:26:10;;;;;;;7.03;2.85;;;;;;;24.43;77.46;94827.25;5043834;28;20021;-89
2022/05/21 09:28:38;;;;;;;5.78;2.97;;;;;;;24.50;76.55;94832.00;5041728;28;20021;-91
2022/05/21 09:31:05;;;;;;;10.18;3.20;;;;;;;24.11;82.28;94825.34;5025628;28;20052;-89
2022/05/21 09:33:41;;;;;;;8.18;2.80;;;;;;;24.57;81.68;94824.16;5041980;28;20047;-90
2022/05/21 09:36:07;;;;;;;8.63;3.15;;;;;;;24.52;87.21;94827.06;5041787;28;20032;-88
2022/05/21 09:38:38;;;;;;;6.65;2.60;;;;;;;24.56;83.48;94819.94;5043563;28;20020;-91
2022/05/21 09:41:16;;;;;;;9.90;3.03;;;;;;;24.50;90.34;94815.94;5026079;28;20064;-90
2022/05/21 09:47:25;;;;;;;11.60;3.03;;;;;;;24.65;77.17;94812.47;5044045;28;20106;-91
2022/05/21 09:50:08;;;;;;;13.20;3.05;;;;;;;24.93;85.69;94808.91;5041574;28;20017;-89
2022/05/21 09:52:34;;;;;;;;;;;;;;;24.70;82.34;94814.91;5041851;28;20025;-90
2022/05/21 09:55:17;;;;;;;7.30;2.80;;;;;;;24.80;86.60;94807.47;5024526;28;19978;-90
2022/05/21 09:57:43;;;;;;;9.60;2.80;;;;;;;24.84;74.14;94811.78;5041119;28;20027;-90
2022/05/21 10:00:31;;;;;;;9.50;3.30;;;;;;;24.56;75.39;94815.31;5040795;28;20025;-89
2022/05/21 10:03:04;;;;;;;7.53;3.38;;;;;;;24.61;82.05;94808.94;5024598;28;20024;-91
2022/05/21 10:05:40;;;;;;;6.55;2.72;;;;;;;24.50;74.21;94800.66;5025007;28;20032;-89
2022/05/21 10:11:06;;;;;;;9.68;2.92;;;;;;;24.79;73.15;94795.19;5043594;28;20117;-89
2022/05/21 10:13:36;;;;;;;10.88;2.97;;;;;;;24.70;74.99;94796.16;5058805;28;20036;-89
2022/05/21 10:16:29;;;;;;;8.18;2.50;;;;;;;25.00;74.55;94789.53;5024602;28;20021;-89
2022/05/21 10:19:19;;;;;;;11.20;2.77;;;;;;;25.14;85.95;94797.13;5040686;28;20032;-89
2022/05/21 10:22:02;;;;;;;9.70;3.13;;;;;;;25.07;75.43;94803.13;5057925;28;20270;-90
2022/05/21 10:24:41;;;;;;;14.13;3.13;;;;;;;25.40;88.25;94806.47;5057824;28;20035;-88
2022/05/21 10:27:27;;;;;;;9.43;3.05;;;;;;;25.46;68.58;94794.31;5041298;28;20021;-90
2022/05/21 10:30:03;;;;;;;9.10;3.50;;;;;;;25.26;76.19;94788.19;5043151;28;20025;-91
2022/05/21 10:33:06;;;;;;;10.27;3.50;;;;;;;25.03;70.26;94791.50;5024630;28;20115;-89
2022/05/21 10:35:49;;;;;;;8.82;3.00;;;;;;;25.32;74.14;94780.63;5044011;28;20041;-90
2022/05/21 10:38:24;;;;;;;9.38;2.85;;;;;;;24.95;76.22;94779.88;5040265;28;20102;-89
2022/05/21 10:41:01;;;;;;;9.13;3.13;;;;;;;25.38;81.55;94773.84;5040516;28;20123;-90
2022/05/21 10:43:56;;;;;;;7.90;2.70;;;;;;;25.52;66.80;94773.41;5040128;28;20035;-89
2022/05/21 10:46:43;;;;;;;6.50;2.47;;;;;;;25.67;67.22;94775.22;5018752;28;20338;-89
2022/05/21 10:50:04;;;;;;;6.63;2.75;;;;;;;25.64;69.92;94767.88;5023797;28;20037;-89
2022/05/21 10:52:58;;;;;;;6.75;2.67;;;;;;;25.89;73.64;94767.53;5028989;28;20095;-90
2022/05/21 10:55:46;;;;;;;;;;;;;;;25.82;75.32;94775.50;5023992;28;20025;-90
2022/05/21 10:58:17;;;;;;;8.20;2.78;;;;;;;25.91;73.47;94773.38;5057575;28;19909;-90
2022/05/21 11:00:52;;;;;;;5.15;3.03;;;;;;;25.78;67.47;94777.34;5039762;28;20124;-89
2022/05/21 11:03:58;;;;;;;7.28;2.67;;;;;;;25.83;69.89;94775.13;5023831;28;20037;-89
2022/05/21 11:06:28;;;;;;;10.40;2.75;;;;;;;25.69;65.40;94777.56;5057431;28;20036;-90
2022/05/21 11:09:09;;;;;;;8.88;3.28;;;;;;;25.66;64.86;94764.84;5039747;28;20031;-90
2022/05/21 11:12:04;;;;;;;14.07;3.17;;;;;;;25.56;68.48;94760.81;5057425;28;20033;-89
2022/05/21 11:14:38;;;;;;;8.45;3.03;;;;;;;25.97;71.71;94760.44;5024158;28;20029;-90
2022/05/21 11:17:18;;;;;;;5.70;2.45;;;;;;;26.12;75.63;94761.44;5057408;28;20123;-90
2022/05/21 11:20:01;;;;;;;7.20;3.00;;;;;;;25.82;71.94;94765.53;5024001;28;20128;-90
2022/05/21 11:22:42;;;;;;;9.63;2.63;;;;;;;26.09;70.75;94754.84;5023798;28;20036;-90
2022/05/21 11:25:28;;;;;;;6.03;2.33;;;;;;;26.23;67.69;94759.72;5004809;28;20148;-90
2022/05/21 11:27:57;;;;;;;7.97;2.80;;;;;;;26.36;66.61;94763.00;5039390;28;20475;-90
2022/05/21 11:30:23;;;;;;;11.43;2.60;;;;;;;25.88;64.80;94765.25;5057132;28;20025;-89
2022/05/21 11:39:16;;;;;;;6.00;2.63;;;;;;;26.36;67.71;94749.56;5056980;28;20354;-89
2022/05/21 11:41:53;;;;;;;12.30;2.70;;;;;;;26.87;77.44;94744.19;5040159;28;20078;-90
2022/05/21 11:47:51;;;;;;;7.65;2.58;;;;;;;26.44;68.65;94750.47;5042145;28;20032;-89
2022/05/21 11:50:26;;;;;;;5.85;2.92;;;;;;;27.00;70.62;94744.75;5056872;28;20029;-88
2022/05/21 11:52:58;;;;;;;8.00;2.83;;;;;;;26.56;68.24;94746.81;5039356;28;20418;-90
2022/05/21 11:55:28;;;;;;;8.25;3.13;;;;;;;27.08;77.11;94735.63;5039765;28;20422;-90
2022/05/21 11:57:53;;;;;;;10.10;3.28;;;;;;;27.10;82.46;94736.03;5022891;28;20457;-90
2022/05/21 12:00:21;;;;;;;6.22;2.47;;;;;;;27.03;77.05;94733.28;5056551;28;20044;-91
2022/05/21 12:02:57;;;;;;;9.55;2.95;;;;;;;27.33;81.23;94719.81;5056887;28;20032;-90
2022/05/21 12:05:45;;;;;;;;;;;;;;;;;;;;;
2022/05/21 12:08:30;;;;;;;;;;;;;;;;;;;;;
2022/05/21 12:11:08;;;;;;;;;;;;;;;;;;;;;
2022/05/21 12:13:44;;;;;;;9.93;2.92;;;;;;;26.95;70.18;94713.59;5056714;28;20021;-91
2022/05/21 12:16:24;;;;;;;10.02;2.55;;;;;;;27.00;75.06;94717.88;5039328;28;20029;-90
2022/05/21 12:19:05;;;;;;;10.52;3.13;;;;;;;26.94;83.24;94709.34;5056429;28;20040;-91
2022/05/21 12:22:02;;;;;;;5.97;2.53;;;;;;;27.67;77.71;94708.25;5038845;28;20032;-91
2022/05/21 12:24:46;;;;;;;;;;;;;;;;;;;;;
2022/05/21 12:27:24;;;;;;;10.07;2.92;;;;;;;28.20;70.14;94701.84;5020368;28;20027;-90
2022/05/21 12:30:20;;;;;;;10.65;3.33;;;;;;;28.11;73.50;94703.25;5019310;28;20029;-90
2022/05/21 12:32:59;;;;;;;;;;;;;;;;;;;;;
2022/05/21 12:35:47;;;;;;;11.48;2.97;;;;;;;28.27;65.75;94693.06;5020759;28;20095;-91
2022/05/21 12:38:24;;;;;;;8.32;2.65;;;;;;;28.19;64.39;94691.44;5004356;28;20056;-91
2022/05/21 12:41:08;;;;;;;7.22;2.90;;;;;;;28.06;64.32;94686.31;5002867;28;20064;-91
2022/05/21 12:44:00;;;;;;;10.05;3.08;;;;;;;28.12;68.97;94686.75;5019370;28;20083;-92
2022/05/21 12:46:47;;;;;;;5.85;2.83;;;;;;;28.34;69.99;94687.69;5006012;28;20540;-92
2022/05/21 12:49:26;;;;;;;;;;;;;;;;;;;;;
2022/05/21 12:52:02;;;;;;;11.38;2.90;;;;;;;28.89;68.77;94677.25;5024342;28;20029;-92
2022/05/21 12:54:33;;;;;;;6.03;2.35;;;;;;;29.09;65.21;94677.72;5006844;28;20057;-91
2022/05/21 12:57:29;;;;;;;;;;;;;;;;;;;;;
2022/05/21 13:00:14;;;;;;;7.07;2.50;;;;;;;28.86;62.96;94672.63;5039117;28;20036;-91
2022/05/21 13:03:07;;;;;;;10.00;2.67;;;;;;;28.72;68.65;94667.91;5023871;28;20033;-91
2022/05/21 13:05:35;;;;;;;8.45;3.15;;;;;;;28.41;65.56;94670.81;5022796;28;20083;-90
2022/05/21 13:08:14;;;;;;;;;;;;;;;;;;;;;